Time;durP1;ratioP1;P1;durP2;ratioP2;P2;SDS_P1;SDS_P2;PMS_P1;PMS_P2;Temp;Humidity;BMP_temperature;BMP_pressure;BME280_temperature;BME280_humidity;BME280_pressure;Samples;Min_cycle;Max_cycle;Signal;HPM_P1;HPM_P2
2022/05/27 00:01:47;;;;;;;;;;;;;;;15.43;77.55;102001.13;5075410;28;20029;-35
2022/05/27 00:04:13;;;;;;;3.10;1.35;;;;;;;15.36;78.75;102001.22;5074698;28;19908;-35
2022/05/27 00:06:38;;;;;;;;;;;;;;;15.44;77.24;101998.16;5075491;28;20029;-35
2022/05/27 00:09:04;;;;;;;4.40;1.70;;;;;;;15.37;78.64;101994.72;5074365;28;19958;-35
2022/05/27 00:11:29;;;;;;;5.88;1.80;;;;;;;15.33;78.70;101982.63;5074770;28;20309;-35
2022/05/27 00:13:54;;;;;;;;;;;;;;;15.44;77.83;101994.59;5074717;28;20074;-35
2022/05/27 00:16:20;;;;;;;4.95;1.70;;;;;;;15.36;78.80;101994.94;5074238;28;19914;-36
2022/05/27 00:18:45;;;;;;;;;;;;;;;15.42;78.04;101988.53;5074556;28;20035;-35
2022/05/27 00:21:11;;;;;;;4.27;1.47;;;;;;;15.24;78.95;101977.75;5074396;28;19909;-36
2022/05/27 00:23:38;;;;;;;4.80;1.75;;;;;;;15.30;79.08;101984.97;5074136;28;20623;-35
2022/05/27 00:26:04;;;;;;;3.33;1.70;;;;;;;15.29;79.49;101988.78;5074818;28;20090;-35
2022/05/27 00:28:29;;;;;;;;;;;;;;;15.36;78.95;101986.75;5074425;28;20426;-35
2022/05/27 00:30:55;;;;;;;6.57;1.65;;;;;;;15.27;79.50;101985.44;5074314;28;19913;-35
2022/05/27 00:33:20;;;;;;;6.90;1.92;;;;;;;15.22;79.70;101983.41;5073856;28;20096;-35
2022/05/27 00:35:46;;;;;;;4.25;1.77;;;;;;;15.14;80.14;101965.53;5074576;28;20028;-36
2022/05/27 00:38:12;;;;;;;6.28;2.13;;;;;;;15.23;80.08;101989.72;5074058;28;20151;-35
2022/05/27 00:40:44;;;;;;;;;;;;;;;15.30;78.94;101980.34;5074451;28;20020;-35
2022/05/27 00:43:10;;;;;;;9.10;2.20;;;;;;;15.12;80.70;101972.25;5073286;28;19915;-35
2022/05/27 00:45:36;;;;;;;;;;;;;;;15.26;80.15;101978.31;5073581;28;20025;-35
2022/05/27 00:48:06;;;;;;;6.80;1.73;;;;;;;15.12;80.52;101967.63;5073708;28;19977;-35
2022/05/27 00:50:36;;;;;;;4.35;2.05;;;;;;;15.18;81.02;101980.34;5073167;28;20035;-35
2022/05/27 00:53:04;;;;;;;9.10;2.10;;;;;;;15.14;81.30;101972.88;5073434;28;20028;-35
2022/05/27 00:55:36;;;;;;;4.82;1.80;;;;;;;15.18;81.50;101974.91;5074238;28;20025;-35
2022/05/27 00:58:09;;;;;;;7.13;2.85;;;;;;;15.19;81.55;101981.16;5073655;28;20024;-35
2022/05/27 01:00:36;;;;;;;7.07;2.40;;;;;;;15.13;83.10;101974.78;5074274;28;20078;-35
2022/05/27 01:03:03;;;;;;;6.85;2.20;;;;;;;14.98;84.22;101949.84;5073108;28;20063;-35
2022/05/27 01:05:29;;;;;;;4.57;2.17;;;;;;;15.12;84.76;101978.53;5072973;28;20032;-35
2022/05/27 01:07:56;;;;;;;;;;;;;;;15.16;83.15;101968.84;5074565;28;20046;-35
2022/05/27 01:10:23;;;;;;;8.70;2.47;;;;;;;15.06;85.53;101963.13;5073389;28;20344;-35
2022/05/27 01:13:18;;;;;;;8.98;2.65;;;;;;;14.97;85.56;101969.97;5073132;28;20107;-35
2022/05/27 01:15:53;;;;;;;5.93;2.40;;;;;;;14.92;87.31;101978.84;5073531;28;20145;-36
2022/05/27 01:21:30;;;;;;;5.82;2.60;;;;;;;14.85;87.94;101969.94;5073660;28;20384;-35
2022/05/27 01:24:14;;;;;;;5.88;2.30;;;;;;;14.84;88.22;101973.75;5073449;28;20035;-35
2022/05/27 01:27:00;;;;;;;8.00;2.78;;;;;;;14.77;89.61;101964.81;5073134;28;20125;-35
2022/05/27 01:29:45;;;;;;;6.70;2.83;;;;;;;14.64;89.77;101954.97;5072815;28;20044;-35
2022/05/27 01:32:16;;;;;;;6.30;2.60;;;;;;;14.65;90.38;101966.69;5073246;28;20334;-35
2022/05/27 01:34:52;;;;;;;7.15;2.70;;;;;;;14.64;90.91;101971.31;5073098;28;20418;-35
2022/05/27 01:37:20;;;;;;;;;;;;;;;14.73;89.08;101968.25;5073416;28;20033;-36
2022/05/27 01:39:59;;;;;;;5.65;2.70;;;;;;;14.60;91.89;101967.38;5072693;28;19908;-35
2022/05/27 01:42:30;;;;;;;7.63;3.47;;;;;;;14.49;92.11;101954.53;5073313;28;20027;-35
2022/05/27 01:45:03;;;;;;;6.82;3.03;;;;;;;14.47;92.44;101948.47;5073489;28;20036;-35
2022/05/27 01:47:54;;;;;;;12.52;3.80;;;;;;;14.45;92.92;101964.22;5073534;28;20420;-35
2022/05/27 01:50:35;;;;;;;7.25;3.58;;;;;;;14.50;93.89;101969.81;5074102;28;20057;-35
2022/05/27 01:53:24;;;;;;;11.85;3.92;;;;;;;14.39;94.03;101956.94;5072798;28;20036;-35
2022/05/27 01:56:03;;;;;;;9.13;3.17;;;;;;;14.46;94.82;101970.47;5072859;28;20098;-35
2022/05/27 01:58:33;;;;;;;9.13;3.60;;;;;;;14.33;96.00;101960.59;5076133;28;20513;-35
2022/05/27 02:00:59;;;;;;;8.63;3.67;;;;;;;14.41;96.11;101968.44;5077504;28;20075;-35
2022/05/27 02:03:28;;;;;;;;;;;;;;;14.46;94.48;101965.88;5078081;28;20070;-36
2022/05/27 02:06:06;;;;;;;8.80;3.45;;;;;;;14.25;96.76;101977.22;5077012;28;19908;-35
2022/05/27 02:08:51;;;;;;;9.00;4.05;;;;;;;14.30;97.76;101996.41;5077261;28;20032;-35
2022/05/27 02:11:19;;;;;;;7.50;3.70;;;;;;;14.26;98.06;101997.94;5076710;28;20047;-35
2022/05/27 02:13:53;;;;;;;9.98;4.10;;;;;;;14.16;98.55;102004.75;5076699;28;20395;-35
2022/05/27 02:16:27;;;;;;;6.13;3.05;;;;;;;14.16;98.27;102006.63;5076632;28;20050;-35
2022/05/27 02:19:07;;;;;;;5.90;2.05;;;;;;;14.09;97.26;102008.56;5076287;28;20024;-35
2022/05/27 02:21:42;;;;;;;3.58;1.52;;;;;;;14.09;96.22;101994.97;5076859;28;20025;-35
2022/05/27 02:24:21;;;;;;;3.90;1.63;;;;;;;13.97;96.26;101999.50;5076446;28;20029;-35
2022/05/27 02:26:54;;;;;;;3.53;1.50;;;;;;;13.88;96.24;101993.53;5076747;28;20039;-35
2022/05/27 02:29:28;;;;;;;3.03;1.30;;;;;;;13.79;96.85;101994.88;5076731;28;20086;-35
2022/05/27 02:32:00;;;;;;;4.18;1.55;;;;;;;13.81;96.79;101999.06;5077012;28;20401;-35
2022/05/27 02:37:24;;;;;;;3.50;1.67;;;;;;;13.80;97.29;101989.22;5076187;28;20063;-35
2022/05/27 02:39:49;;;;;;;5.28;1.90;;;;;;;13.81;97.78;101977.31;5076577;28;20040;-34
2022/05/27 02:42:20;;;;;;;;;;;;;;;13.90;95.29;101975.91;5077215;28;20386;-34
2022/05/27 02:45:06;;;;;;;5.10;1.60;;;;;;;13.85;96.96;101977.66;5076255;28;19913;-34
2022/05/27 02:47:46;;;;;;;3.13;1.40;;;;;;;13.83;97.68;101974.34;5074581;28;20513;-34
2022/05/27 02:50:29;;;;;;;4.93;1.35;;;;;;;13.80;97.63;101986.50;5075796;28;20024;-34
2022/05/27 02:53:09;;;;;;;4.07;1.77;;;;;;;13.77;97.55;101989.69;5075624;28;20029;-35
2022/05/27 02:56:10;;;;;;;3.83;1.38;;;;;;;13.73;96.18;101988.44;5075512;28;20028;-35
2022/05/27 02:58:35;;;;;;;4.00;1.50;;;;;;;13.67;96.98;101988.53;5053484;28;20033;-35
2022/05/27 03:01:02;;;;;;;3.25;1.15;;;;;;;13.67;97.77;101986.63;5053469;28;20403;-35
2022/05/27 03:03:28;;;;;;;2.58;1.30;;;;;;;13.55;97.87;101955.81;5053841;28;20033;-35
2022/05/27 03:06:05;;;;;;;2.70;1.00;;;;;;;13.62;96.93;101972.91;5053161;28;20545;-35
2022/05/27 03:08:52;;;;;;;3.15;1.40;;;;;;;13.62;97.30;101968.28;5052971;28;20616;-35
2022/05/27 03:11:26;;;;;;;2.75;1.08;;;;;;;13.54;97.55;101968.56;5053554;28;20444;-35
2022/05/27 03:14:07;;;;;;;3.70;1.33;;;;;;;13.63;98.05;101986.25;5053169;28;20066;-35
2022/05/27 03:16:42;;;;;;;3.00;1.20;;;;;;;13.63;98.73;101980.81;5053478;28;20037;-35
2022/05/27 03:19:17;;;;;;;4.30;1.40;;;;;;;13.67;99.92;101985.81;5053179;28;20072;-35
2022/05/27 03:21:51;;;;;;;3.78;1.40;;;;;;;13.62;99.99;101973.72;5053470;28;20028;-35
2022/05/27 03:24:20;;;;;;;3.03;1.30;;;;;;;13.59;99.70;101965.19;5053320;28;20033;-35
2022/05/27 03:26:51;;;;;;;4.97;1.50;;;;;;;13.57;100.00;101957.25;5052829;28;20049;-35
2022/05/27 03:29:53;;;;;;;2.90;1.30;;;;;;;13.62;100.00;101954.69;5053090;28;20049;-35
2022/05/27 03:32:24;;;;;;;5.82;1.50;;;;;;;13.62;100.00;101960.13;5061433;28;20043;-34
2022/05/27 03:35:05;;;;;;;5.00;1.67;;;;;;;13.63;100.00;101956.34;5075255;28;20032;-34
2022/05/27 03:37:39;;;;;;;4.00;1.48;;;;;;;13.61;100.00;101961.16;5074891;28;20025;-34
2022/05/27 03:40:13;;;;;;;3.13;1.42;;;;;;;13.68;99.91;101971.16;5075090;28;20036;-35
2022/05/27 03:42:40;;;;;;;3.78;1.75;;;;;;;13.67;99.71;101970.34;5075273;28;20029;-35
2022/05/27 03:45:18;;;;;;;5.05;1.77;;;;;;;13.72;99.61;101964.22;5074735;28;20116;-35
2022/05/27 03:47:45;;;;;;;3.97;1.90;;;;;;;13.59;100.00;101951.59;5075166;28;20031;-35
2022/05/27 03:50:19;;;;;;;4.43;1.88;;;;;;;13.68;100.00;101963.00;5074468;28;20411;-35
2022/05/27 03:52:47;;;;;;;4.82;1.67;;;;;;;13.71;99.30;101955.22;5074978;28;20391;-35
2022/05/27 03:55:16;;;;;;;4.55;1.73;;;;;;;13.67;99.20;101945.88;5074443;28;20127;-35
2022/05/27 03:57:41;;;;;;;3.95;1.73;;;;;;;13.78;99.50;101961.44;5074730;28;20031;-35
2022/05/27 04:00:08;;;;;;;7.60;1.80;;;;;;;13.77;99.65;101961.66;5074466;28;20028;-35
2022/05/27 04:02:33;;;;;;;4.22;1.70;;;;;;;13.79;99.44;101957.66;5074393;28;20154;-34
2022/05/27 04:04:58;;;;;;;3.33;1.80;;;;;;;13.78;99.56;101955.16;5074636;28;20385;-35
2022/05/27 04:07:24;;;;;;;4.07;1.70;;;;;;;13.75;99.35;101950.16;5074364;28;20091;-35
2022/05/27 04:09:49;;;;;;;3.95;1.63;;;;;;;13.84;99.53;101963.25;5074137;28;20109;-35
2022/05/27 04:12:14;;;;;;;4.63;1.70;;;;;;;13.81;100.00;101968.28;5074615;28;20107;-35
2022/05/27 04:14:40;;;;;;;4.38;1.98;;;;;;;13.80;99.85;101958.47;5073867;28;20297;-35
2022/05/27 04:19:50;;;;;;;3.40;1.75;;;;;;;13.85;100.00;101977.66;5074350;28;20043;-35
2022/05/27 04:22:15;;;;;;;4.25;1.90;;;;;;;13.89;100.00;101979.72;5074268;28;20028;-35
2022/05/27 04:24:40;;;;;;;2.45;1.65;;;;;;;13.85;100.00;101962.16;5073779;28;20024;-35
2022/05/27 04:27:08;;;;;;;3.90;1.90;;;;;;;13.91;100.00;101982.22;5074268;28;20031;-35
2022/05/27 04:29:38;;;;;;;3.97;1.92;;;;;;;13.87;100.00;101979.13;5074135;28;20053;-35
2022/05/27 04:32:03;;;;;;;4.70;2.20;;;;;;;13.95;100.00;101977.97;5073763;28;20044;-35
2022/05/27 04:34:29;;;;;;;;;;;;;;;14.06;99.51;101979.97;5073905;28;20042;-35
2022/05/27 04:36:54;;;;;;;5.00;2.30;;;;;;;14.04;100.00;101982.06;5073770;28;20448;-35
2022/05/27 04:39:19;;;;;;;4.63;2.57;;;;;;;13.99;100.00;101973.75;5073675;28;20038;-35
2022/05/27 04:41:46;;;;;;;6.37;3.00;;;;;;;14.02;100.00;101973.31;5073905;28;20304;-35
2022/05/27 04:44:11;;;;;;;7.45;3.30;;;;;;;14.06;100.00;101969.06;5073525;28;20402;-35
2022/05/27 04:46:36;;;;;;;7.30;3.30;;;;;;;14.14;100.00;101967.94;5073995;28;20028;-35
2022/05/27 04:49:02;;;;;;;6.10;3.33;;;;;;;14.30;100.00;101982.78;5073405;28;20031;-35
2022/05/27 04:51:27;;;;;;;5.78;3.50;;;;;;;14.40;100.00;101985.84;5073904;28;20251;-35
2022/05/27 04:53:52;;;;;;;6.60;3.40;;;;;;;14.39;100.00;101968.66;5073066;28;20033;-35
2022/05/27 04:56:21;;;;;;;8.75;3.65;;;;;;;14.52;100.00;101977.75;5073384;28;20263;-35
2022/05/27 04:58:47;;;;;;;9.20;3.72;;;;;;;14.55;100.00;101980.03;5073461;28;20473;-35
2022/05/27 05:01:12;;;;;;;;;;;;;;;14.65;100.00;101983.84;5073702;28;20028;-35
2022/05/27 05:03:37;;;;;;;9.00;4.60;;;;;;;14.50;100.00;101967.09;5073183;28;19916;-35
2022/05/27 05:06:02;;;;;;;;;;;;;;;14.75;100.00;101985.19;5073772;28;20040;-35
2022/05/27 05:08:36;;;;;;;9.07;4.22;;;;;;;14.68;100.00;101977.94;5073684;28;19920;-35
2022/05/27 05:11:03;;;;;;;11.48;4.40;;;;;;;14.66;100.00;101977.34;5071764;28;20024;-35
2022/05/27 05:13:30;;;;;;;12.15;4.50;;;;;;;14.66;100.00;101971.06;5073412;28;20036;-35
2022/05/27 05:15:57;;;;;;;9.52;4.90;;;;;;;14.71;100.00;101994.88;5073359;28;20441;-35
2022/05/27 05:18:23;;;;;;;11.32;4.30;;;;;;;14.66;100.00;101990.13;5073540;28;20057;-35
2022/05/27 05:20:49;;;;;;;13.45;4.95;;;;;;;14.73;100.00;102000.91;5073574;28;20068;-35
2022/05/27 05:23:14;;;;;;;;;;;;;;;14.84;100.00;102002.88;5073459;28;20125;-35
2022/05/27 05:25:39;;;;;;;12.38;3.88;;;;;;;14.78;100.00;102001.88;5073090;28;19915;-35
2022/05/27 05:28:05;;;;;;;;;;;;;;;14.91;100.00;102011.75;5073717;28;20082;-35
2022/05/27 05:30:30;;;;;;;9.13;3.53;;;;;;;14.79;100.00;101994.56;5073146;28;19913;-35
2022/05/27 05:32:55;;;;;;;;;;;;;;;14.96;100.00;102009.16;5072654;28;20461;-35
2022/05/27 05:35:22;;;;;;;8.70;3.50;;;;;;;14.93;100.00;102017.78;5073141;28;19908;-35
2022/05/27 05:37:47;;;;;;;;;;;;;;;15.01;99.80;102020.19;5073762;28;20262;-35
2022/05/27 05:40:13;;;;;;;9.27;3.10;;;;;;;14.93;100.00;102023.25;5072740;28;19908;-35
2022/05/27 05:42:40;;;;;;;10.23;3.42;;;;;;;14.86;100.00;102006.19;5073228;28;20025;-35
2022/05/27 05:45:07;;;;;;;10.05;3.72;;;;;;;14.92;100.00;102025.13;5073270;28;20033;-35
2022/05/27 05:47:32;;;;;;;11.63;3.25;;;;;;;15.01;100.00;102035.72;5072809;28;20095;-35
2022/05/27 05:49:58;;;;;;;;;;;;;;;15.16;99.66;102039.66;5073572;28;20128;-35
2022/05/27 05:52:23;;;;;;;8.10;2.93;;;;;;;14.96;96.98;102016.53;5072927;28;19957;-35
2022/05/27 05:54:48;;;;;;;;;;;;;;;15.09;97.27;102022.59;5073030;28;20036;-35
2022/05/27 05:57:14;;;;;;;10.47;2.50;;;;;;;15.01;96.74;102025.66;5072640;28;19912;-35
2022/05/27 05:59:39;;;;;;;9.40;2.30;;;;;;;14.89;95.03;102022.91;5072518;28;20270;-35
2022/05/27 06:02:07;;;;;;;7.47;2.50;;;;;;;14.92;95.43;102041.47;5072699;28;20040;-35
2022/05/27 06:04:32;;;;;;;6.97;2.55;;;;;;;14.78;95.86;102031.81;5072642;28;20371;-35
2022/05/27 06:06:58;;;;;;;;;;;;;;;14.95;95.35;102045.66;5074075;28;20040;-35
2022/05/27 06:09:25;;;;;;;23.25;3.17;;;;;;;14.88;93.21;102042.16;5072573;28;20416;-35
2022/05/27 06:11:53;;;;;;;17.98;2.80;;;;;;;14.86;92.07;102050.56;5072785;28;20108;-35
2022/05/27 06:14:18;;;;;;;31.45;3.67;;;;;;;14.92;92.07;102041.47;5072979;28;20063;-35
2022/05/27 06:16:44;;;;;;;;;;;;;;;15.02;93.09;102031.94;5073275;28;20033;-35
2022/05/27 06:19:09;;;;;;;11.83;2.90;;;;;;;14.94;92.16;102041.28;5072555;28;20340;-35
2022/05/27 06:21:34;;;;;;;;;;;;;;;15.10;92.60;102045.22;5072917;28;20028;-35
2022/05/27 06:24:01;;;;;;;19.80;2.87;;;;;;;15.02;91.88;102030.03;5072422;28;19966;-35
2022/05/27 06:26:26;;;;;;;6.68;2.00;;;;;;;15.15;89.48;102045.38;5072073;28;20294;-35
2022/05/27 06:34:26;;;;;;;8.10;1.92;;;;;;;15.19;87.13;102044.66;5072179;28;20047;-35
2022/05/27 06:37:05;;;;;;;7.50;2.00;;;;;;;15.31;87.24;102057.47;5072414;28;20029;-35
2022/05/27 06:39:34;;;;;;;5.28;1.48;;;;;;;15.32;84.74;102051.78;5072433;28;20052;-35
2022/05/27 06:41:59;;;;;;;7.88;2.08;;;;;;;15.23;87.25;102036.03;5072379;28;20024;-35
2022/05/27 06:44:24;;;;;;;5.40;1.38;;;;;;;15.36;84.72;102044.81;5075174;28;20024;-35
2022/05/27 06:46:51;;;;;;;9.07;3.28;;;;;;;15.31;82.96;102043.84;5076060;28;20354;-35
2022/05/27 06:49:20;;;;;;;10.32;1.90;;;;;;;15.31;84.47;102039.22;5075832;28;20400;-35
2022/05/27 06:51:47;;;;;;;5.25;1.65;;;;;;;15.44;84.19;102052.66;5076138;28;20048;-35
2022/05/27 06:54:14;;;;;;;4.97;1.50;;;;;;;15.46;83.82;102055.16;5075625;28;20130;-35
2022/05/27 06:56:41;;;;;;;5.82;1.60;;;;;;;15.54;83.74;102046.63;5076084;28;20111;-35
2022/05/27 06:59:07;;;;;;;6.70;1.98;;;;;;;15.52;81.26;102048.78;5075600;28;20024;-35
2022/05/27 07:01:35;;;;;;;6.93;1.85;;;;;;;15.53;79.57;102061.34;5075977;28;20495;-35
2022/05/27 07:04:00;;;;;;;6.43;2.13;;;;;;;15.50;78.54;102052.78;5075295;28;20119;-35
2022/05/27 07:06:28;;;;;;;;;;;;;;;15.68;81.75;102053.56;5075244;28;20052;-35
2022/05/27 07:08:54;;;;;;;6.63;2.22;;;;;;;15.65;77.42;102054.03;5075528;28;19908;-35
2022/05/27 07:11:19;;;;;;;5.30;1.70;;;;;;;15.67;76.73;102051.91;5075476;28;20028;-35
2022/05/27 07:13:45;;;;;;;;;;;;;;;15.76;79.30;102052.38;5075857;28;20025;-35
2022/05/27 07:16:10;;;;;;;5.27;1.80;;;;;;;15.51;76.14;102063.44;5075586;28;20272;-35
2022/05/27 07:18:35;;;;;;;;;;;;;;;15.51;76.00;102063.44;5075411;28;20511;-35
2022/05/27 07:21:03;;;;;;;7.93;1.65;;;;;;;15.40;77.44;102067.00;5075780;28;19909;-35
2022/05/27 07:23:28;;;;;;;8.05;2.05;;;;;;;15.37;77.67;102053.81;5075152;28;20033;-35
2022/05/27 07:25:54;;;;;;;12.48;2.55;;;;;;;15.43;78.11;102067.38;5075231;28;20358;-35
2022/05/27 07:28:19;;;;;;;7.63;1.92;;;;;;;15.43;78.24;102051.00;5074987;28;20049;-35
2022/05/27 07:30:45;;;;;;;;;;;;;;;15.68;79.82;102064.47;5075762;28;20117;-35
2022/05/27 07:33:10;;;;;;;8.00;1.65;;;;;;;15.81;78.47;102059.84;5074987;28;19919;-35
2022/05/27 07:35:35;;;;;;;5.07;1.70;;;;;;;15.83;77.75;102060.44;5075582;28;20043;-35
2022/05/27 07:38:00;;;;;;;7.40;2.10;;;;;;;15.94;77.53;102065.91;5075409;28;20275;-35
2022/05/27 07:40:26;;;;;;;6.27;1.87;;;;;;;16.09;77.09;102065.41;5075175;28;20254;-35
2022/05/27 07:42:51;;;;;;;7.70;2.30;;;;;;;16.26;78.77;102073.72;5074587;28;20754;-35
2022/05/27 07:45:17;;;;;;;;;;;;;;;16.42;78.67;102072.97;5075380;28;20078;-35
2022/05/27 07:47:43;;;;;;;6.22;1.88;;;;;;;16.37;76.26;102066.59;5074877;28;19966;-35
2022/05/27 07:50:11;;;;;;;6.18;1.77;;;;;;;16.37;72.32;102078.34;5074575;28;20033;-35
2022/05/27 07:52:37;;;;;;;5.05;1.70;;;;;;;16.33;70.99;102081.78;5074983;28;20059;-35
2022/05/27 07:55:03;;;;;;;7.45;2.08;;;;;;;16.31;70.39;102086.66;5073791;28;20025;-35
2022/05/27 07:57:29;;;;;;;;;;;;;;;16.42;74.42;102088.53;5075521;28;20046;-35
2022/05/27 07:59:54;;;;;;;6.78;1.90;;;;;;;16.45;73.08;102082.59;5074283;28;19987;-35
2022/05/27 08:02:19;;;;;;;;;;;;;;;16.53;74.52;102082.22;5075019;28;20029;-35
2022/05/27 08:04:45;;;;;;;5.97;2.03;;;;;;;16.35;75.02;102080.47;5074405;28;19910;-35
2022/05/27 08:07:10;;;;;;;7.43;1.70;;;;;;;16.27;72.45;102078.09;5074670;28;20472;-35
2022/05/27 08:09:35;;;;;;;;;;;;;;;16.40;72.85;102086.06;5074904;28;20020;-35
2022/05/27 08:12:01;;;;;;;6.53;1.60;;;;;;;16.39;70.37;102092.56;5074445;28;19912;-35
2022/05/27 08:14:26;;;;;;;8.63;2.38;;;;;;;16.45;70.38;102091.63;5073958;28;20336;-35
2022/05/27 08:16:51;;;;;;;7.95;1.88;;;;;;;16.49;70.08;102089.22;5074114;28;20021;-35
2022/05/27 08:19:16;;;;;;;;;;;;;;;16.66;69.59;102097.50;5074744;28;20146;-35
2022/05/27 08:21:42;;;;;;;13.47;2.20;;;;;;;16.68;67.90;102082.53;5074375;28;19912;-35
2022/05/27 08:24:10;;;;;;;;;;;;;;;16.94;69.41;102100.31;5074049;28;20231;-35
2022/05/27 08:26:37;;;;;;;9.90;2.05;;;;;;;16.98;68.14;102096.03;5074266;28;20374;-35
2022/05/27 08:29:03;;;;;;;7.78;2.10;;;;;;;17.02;66.90;102093.63;5074395;28;20122;-35
2022/05/27 08:31:28;;;;;;;9.95;2.10;;;;;;;16.95;67.17;102095.69;5073556;28;20139;-35
2022/05/27 08:39:22;;;;;;;5.32;1.70;;;;;;;16.39;67.01;102102.66;5073859;28;20075;-35
2022/05/27 08:41:54;;;;;;;8.00;2.47;;;;;;;16.55;67.09;102106.56;5073881;28;20056;-34
2022/05/27 08:45:06;;;;;;;6.70;2.20;;;;;;;16.76;67.66;102108.69;5074199;28;20064;-35
2022/05/27 08:47:37;;;;;;;8.70;1.80;;;;;;;16.87;65.24;102090.59;5051500;28;20095;-35
2022/05/27 08:50:33;;;;;;;10.80;2.35;;;;;;;17.06;64.29;102103.00;5051316;28;20571;-35
2022/05/27 08:53:13;;;;;;;25.73;3.53;;;;;;;17.29;65.64;102096.59;5051650;28;20162;-35
2022/05/27 09:01:49;;;;;;;5.72;2.00;;;;;;;16.75;62.23;102103.47;5011585;28;20129;-35
2022/05/27 09:04:17;;;;;;;9.48;2.10;;;;;;;16.70;63.39;102118.63;5011473;28;20021;-35
2022/05/27 09:06:50;;;;;;;6.70;2.63;;;;;;;16.82;62.72;102101.41;5010925;28;20382;-35
2022/05/27 09:09:27;;;;;;;6.88;2.30;;;;;;;16.92;61.44;102091.50;5011448;28;20034;-35
2022/05/27 09:12:20;;;;;;;8.90;2.42;;;;;;;17.29;59.49;102117.66;5011261;28;20052;-35
2022/05/27 09:14:56;;;;;;;7.03;2.17;;;;;;;17.50;60.49;102106.00;5011214;28;20030;-35
2022/05/27 09:18:02;;;;;;;7.30;2.08;;;;;;;18.01;61.31;102123.31;5011227;28;20050;-36
2022/05/27 09:20:47;;;;;;;7.57;2.03;;;;;;;17.87;58.18;102127.44;4972593;28;20042;-35
2022/05/27 09:23:34;;;;;;;4.40;1.60;;;;;;;17.62;58.27;102117.69;4972396;28;20035;-35
2022/05/27 09:26:19;;;;;;;8.45;2.38;;;;;;;17.62;59.49;102125.91;4956486;28;20129;-35
2022/05/27 09:28:53;;;;;;;9.93;2.58;;;;;;;17.35;58.59;102125.69;4971925;28;20077;-35
2022/05/27 09:31:30;;;;;;;13.38;7.38;;;;;;;17.31;58.73;102140.91;4971909;28;20046;-35
2022/05/27 09:33:56;;;;;;;8.05;2.85;;;;;;;17.19;58.65;102145.63;5011332;28;20045;-35
2022/05/27 09:36:25;;;;;;;;;;;;;;;17.27;58.62;102141.66;5011729;28;20038;-35
2022/05/27 09:38:55;;;;;;;6.05;1.90;;;;;;;17.26;58.53;102140.81;5011353;28;20411;-35
2022/05/27 09:41:32;;;;;;;7.63;2.28;;;;;;;17.68;58.69;102143.22;5010928;28;20470;-35
2022/05/27 09:44:34;;;;;;;6.85;2.08;;;;;;;18.14;58.62;102142.09;5011149;28;20399;-35
2022/05/27 09:47:02;;;;;;;9.95;2.13;;;;;;;18.23;56.01;102147.97;5010991;28;20092;-36
2022/05/27 09:49:27;;;;;;;10.48;2.63;;;;;;;18.15;55.21;102140.19;5010753;28;20584;-35
2022/05/27 09:51:52;;;;;;;;;;;;;;;18.34;56.26;102148.97;5011760;28;20046;-35
2022/05/27 09:54:34;;;;;;;6.85;2.15;;;;;;;18.04;55.59;102154.78;5011405;28;20427;-35
2022/05/27 09:57:04;;;;;;;12.13;2.00;;;;;;;17.91;55.41;102148.59;5048844;28;20183;-35
2022/05/27 09:59:39;;;;;;;8.82;2.15;;;;;;;18.08;55.53;102159.53;5050760;28;20163;-35
2022/05/27 10:02:17;;;;;;;8.98;2.00;;;;;;;18.24;53.42;102147.72;5050917;28;20433;-35
2022/05/27 10:04:51;;;;;;;7.90;2.17;;;;;;;18.44;54.69;102136.25;5050260;28;20044;-35
2022/05/27 10:07:25;;;;;;;6.97;2.13;;;;;;;18.40;53.58;102150.72;5050724;28;20044;-35
2022/05/27 10:09:50;;;;;;;6.43;1.67;;;;;;;18.20;50.04;102162.16;5050238;28;20417;-35
2022/05/27 10:12:28;;;;;;;;;;;;;;;18.37;50.69;102162.16;5051390;28;20082;-35
2022/05/27 10:14:54;;;;;;;5.78;2.38;;;;;;;18.25;48.86;102149.41;5050827;28;20411;-35
2022/05/27 10:17:31;;;;;;;5.57;2.03;;;;;;;18.14;49.08;102158.53;5050002;28;20068;-35
2022/05/27 10:20:34;;;;;;;5.35;1.70;;;;;;;18.13;50.77;102161.53;5054397;28;20424;-35
2022/05/27 10:23:03;;;;;;;6.63;1.77;;;;;;;18.37;50.85;102159.41;5069981;28;20041;-35
2022/05/27 10:25:37;;;;;;;6.78;2.13;;;;;;;18.57;48.81;102151.50;5076009;28;20029;-35
2022/05/27 10:28:05;;;;;;;7.13;1.90;;;;;;;18.72;48.27;102142.69;5076335;28;20039;-35
2022/05/27 10:30:41;;;;;;;6.65;2.38;;;;;;;18.85;49.03;102146.97;5076733;28;20461;-35
2022/05/27 10:33:22;;;;;;;7.95;2.28;;;;;;;18.70;48.28;102148.44;5076729;28;20028;-35
2022/05/27 10:35:50;;;;;;;4.88;1.70;;;;;;;18.74;47.22;102157.81;5076389;28;20169;-35
2022/05/27 10:38:15;;;;;;;8.95;2.40;;;;;;;18.47;46.79;102159.56;5075278;28;20044;-35
2022/05/27 10:41:02;;;;;;;;;;;;;;;18.68;49.83;102156.06;5076464;28;20029;-35
2022/05/27 10:43:50;;;;;;;8.35;1.92;;;;;;;18.92;47.53;102158.56;5076783;28;19915;-35
2022/05/27 10:46:23;;;;;;;5.80;1.83;;;;;;;19.01;47.18;102144.16;5076246;28;20173;-35
2022/05/27 10:49:11;;;;;;;9.60;1.98;;;;;;;19.01;46.99;102146.88;5076281;28;20028;-35
2022/05/27 10:52:12;;;;;;;6.43;1.90;;;;;;;18.74;47.81;102149.59;5076102;28;20089;-35
2022/05/27 10:54:52;;;;;;;6.35;1.77;;;;;;;18.62;48.37;102154.31;5075936;28;20243;-35
2022/05/27 11:03:30;;;;;;;6.72;2.50;;;;;;;19.13;46.57;102155.00;5076274;28;20123;-35
2022/05/27 11:06:24;;;;;;;9.65;1.95;;;;;;;19.22;45.28;102169.06;5075665;28;20043;-35
2022/05/27 11:09:11;;;;;;;8.40;1.95;;;;;;;19.52;44.79;102168.53;5076173;28;20070;-35
2022/05/27 11:11:39;;;;;;;;;;;;;;;19.86;45.54;102158.19;5076049;28;20028;-35
2022/05/27 11:18:05;;;;;;;6.30;1.80;;;;;;;19.98;44.29;102155.28;5053470;28;20044;-35
2022/05/27 11:20:55;;;;;;;6.15;1.95;;;;;;;19.66;43.59;102147.88;4974364;28;20050;-35
2022/05/27 11:23:49;;;;;;;8.38;2.05;;;;;;;19.07;44.53;102172.44;4974718;28;20113;-35
2022/05/27 11:26:55;;;;;;;8.02;1.80;;;;;;;19.03;44.13;102172.16;4974849;28;20038;-35
2022/05/27 11:29:30;;;;;;;8.45;1.73;;;;;;;19.21;43.91;102156.44;4973567;28;20072;-35
2022/05/27 11:32:12;;;;;;;6.20;2.20;;;;;;;19.40;44.02;102160.47;4974226;28;20349;-35
2022/05/27 11:34:48;;;;;;;7.22;2.22;;;;;;;19.39;42.62;102166.25;4974654;28;20120;-35
2022/05/27 11:37:22;;;;;;;;;;;;;;;19.83;44.79;102157.91;4974832;28;20062;-35
2022/05/27 11:40:23;;;;;;;5.47;1.70;;;;;;;19.73;43.30;102175.94;4973918;28;20422;-35
2022/05/27 11:42:57;;;;;;;8.05;2.10;;;;;;;19.62;43.12;102179.69;4897975;29;20039;-35
2022/05/27 11:45:31;;;;;;;5.90;1.80;;;;;;;19.64;42.41;102174.75;4897729;29;20068;-35
2022/05/27 11:48:25;;;;;;;7.35;2.22;;;;;;;19.54;42.40;102188.34;4897534;29;20463;-35
2022/05/27 11:51:16;;;;;;;8.00;2.05;;;;;;;19.30;41.32;102199.59;4897670;29;20049;-35
2022/05/27 11:53:47;;;;;;;4.43;1.63;;;;;;;19.15;41.66;102185.72;4915730;29;20047;-35
2022/05/27 11:56:27;;;;;;;4.85;1.80;;;;;;;19.09;41.49;102196.88;4935174;29;20039;-35
2022/05/27 11:59:02;;;;;;;4.22;1.55;;;;;;;19.20;42.20;102176.72;4993291;28;20042;-35
2022/05/27 12:01:40;;;;;;;4.80;1.95;;;;;;;19.23;42.90;102181.69;4993060;28;20034;-35
2022/05/27 12:04:35;;;;;;;6.70;1.98;;;;;;;19.16;43.60;102187.34;4992881;28;20553;-35
2022/05/27 12:07:20;;;;;;;9.20;2.40;;;;;;;19.16;44.33;102186.53;4993570;28;20057;-34
2022/05/27 12:10:14;;;;;;;6.63;1.90;;;;;;;19.47;43.95;102171.25;4993170;28;20089;-35
2022/05/27 12:12:59;;;;;;;4.85;1.70;;;;;;;19.78;42.70;102178.72;4993127;28;20034;-34
2022/05/27 12:15:52;;;;;;;5.10;1.70;;;;;;;20.04;42.50;102182.50;4992973;28;20042;-35
2022/05/27 12:18:29;;;;;;;6.45;1.90;;;;;;;20.00;40.92;102170.41;4983070;28;20084;-36
2022/05/27 12:20:56;;;;;;;8.15;1.60;;;;;;;20.00;39.04;102183.31;5032577;28;20069;-36
2022/05/27 12:23:26;;;;;;;4.80;1.77;;;;;;;20.02;39.34;102183.88;5032039;28;20038;-36
2022/05/27 12:25:55;;;;;;;6.25;1.77;;;;;;;20.12;40.68;102172.97;5032070;28;20037;-36
2022/05/27 12:28:29;;;;;;;8.00;1.90;;;;;;;20.16;41.13;102168.63;5031791;28;20175;-36
2022/05/27 12:30:56;;;;;;;6.10;1.92;;;;;;;20.35;40.94;102171.78;5031807;28;20498;-36